»·PEaware :: WAT234 KPSP-KHHR

WAT234 :: KPSP-KHHR

FLIGHT INFORMATION

Flight Status: Arrived
Operator:
Walker Air Transport
More flights by this operator :: More flights under this callsign
Pilot: Eduardo Elias G. (24838)
Aircraft: CIRRUS SR-22
(SR22)
More flights by this aircraft type
Origin: KPSP Palm Springs Intl
United States
Destination: KHHR Northrop/Hawthorne Mun
United States
More flights between these airports :: More routes between these airports
Route: +CATH1 PSP V388 PDZ PDZ270R HHR RY25 LOC
File this flight plan on PilotEdge
Remarks: Tec route PSPP9
Altitude:
(Current/Filed)
10,000ft
Speed:
(Current/Filed)
160kts
Departed: 11-Aug-20 08:56 PM
Arrived: 11-Aug-20 09:48 PM
Distance/Time
Traveled:
91nm/0:51
Distance/Time
To Go:
Arrived

Flight Plot

Page will automatically refresh every two minutes.

Flight plan parsing failed; only flown route is shown


Map Options




Map Legend


Flown Route
Filed Route
Departure Airport
Arrival Airport
Navaid (VOR, NDB)
Fix

Horizontal Profiles

Position Reports

Time Latitude Longitude Heading Altitude Ground
Speed
11-Aug-20 20:17 33.825775 -116.508736 270 429ft 0kts
11-Aug-20 20:18 33.825775 -116.508736 270 429ft 0kts
11-Aug-20 20:19 33.825775 -116.508736 270 429ft 0kts
11-Aug-20 20:20 33.825775 -116.508736 270 429ft 0kts
11-Aug-20 20:21 33.825775 -116.508736 270 429ft 0kts
11-Aug-20 20:22 33.825775 -116.508736 270 429ft 0kts
11-Aug-20 20:23 33.825775 -116.508736 270 429ft 0kts
11-Aug-20 20:24 33.825775 -116.508736 270 429ft 0kts
11-Aug-20 20:25 33.825775 -116.508736 270 429ft 0kts
11-Aug-20 20:26 33.825775 -116.508736 270 429ft 0kts
11-Aug-20 20:27 33.825775 -116.508736 270 429ft 0kts
11-Aug-20 20:28 33.825775 -116.508736 270 429ft 0kts
11-Aug-20 20:29 33.825775 -116.508736 270 429ft 0kts
11-Aug-20 20:30 33.825775 -116.508736 270 429ft 0kts
11-Aug-20 20:31 33.825775 -116.508736 270 429ft 0kts
11-Aug-20 20:32 33.825775 -116.508736 270 429ft 0kts
11-Aug-20 20:33 33.825775 -116.508736 270 429ft 0kts
11-Aug-20 20:34 33.825775 -116.508736 270 429ft 0kts
11-Aug-20 20:35 33.825775 -116.508736 270 429ft 0kts
11-Aug-20 20:36 33.825775 -116.508736 270 429ft 0kts
11-Aug-20 20:37 33.825775 -116.508736 270 429ft 0kts
11-Aug-20 20:38 33.825775 -116.508736 270 429ft 0kts
11-Aug-20 20:39 33.825775 -116.508736 270 429ft 0kts
11-Aug-20 20:40 33.825775 -116.508736 270 429ft 0kts
11-Aug-20 20:41 33.825775 -116.508736 270 429ft 0kts
11-Aug-20 20:42 33.825775 -116.508736 270 429ft 0kts
11-Aug-20 20:43 33.825775 -116.508736 270 429ft 0kts
11-Aug-20 20:44 33.825775 -116.508736 270 429ft 0kts
11-Aug-20 20:45 33.825775 -116.508736 270 429ft 0kts
11-Aug-20 20:46 33.825775 -116.508736 270 429ft 0kts
11-Aug-20 20:47 33.825775 -116.508736 270 429ft 0kts
11-Aug-20 20:48 33.825463 -116.508278 127 429ft 4kts
11-Aug-20 20:49 33.825253 -116.506601 74 429ft 1kts
11-Aug-20 20:50 33.823915 -116.504601 144 429ft 17kts
11-Aug-20 20:51 33.819124 -116.500294 140 429ft 24kts
11-Aug-20 20:52 33.818528 -116.499474 89 429ft 0kts
11-Aug-20 20:53 33.818528 -116.499474 89 429ft 0kts
11-Aug-20 20:54 33.818513 -116.498985 92 429ft 7kts
11-Aug-20 20:55 33.827597 -116.505524 324 597ft 99kts
11-Aug-20 20:56 33.857449 -116.533917 320 885ft 162kts
11-Aug-20 20:57 33.888816 -116.565857 325 2010ft 136kts
11-Aug-20 20:58 33.907630 -116.543937 102 3133ft 151kts
11-Aug-20 20:59 33.892360 -116.495513 110 3974ft 157kts
11-Aug-20 21:00 33.875702 -116.446393 111 4732ft 158kts
11-Aug-20 21:01 33.856467 -116.397813 117 5275ft 162kts
11-Aug-20 21:02 33.835961 -116.349615 119 5914ft 158kts
11-Aug-20 21:03 33.817603 -116.306478 122 6897ft 137kts
11-Aug-20 21:04 33.800131 -116.265580 124 7712ft 137kts
11-Aug-20 21:05 33.776915 -116.251311 247 8525ft 102kts
11-Aug-20 21:06 33.787205 -116.284353 291 9269ft 113kts
11-Aug-20 21:07 33.805066 -116.316562 293 9955ft 121kts
11-Aug-20 21:08 33.827018 -116.354894 295 9972ft 149kts
11-Aug-20 21:09 33.851391 -116.397350 296 9980ft 158kts
11-Aug-20 21:10 33.873228 -116.442671 280 9983ft 153kts
11-Aug-20 21:11 33.886095 -116.493038 279 9980ft 154kts
11-Aug-20 21:12 33.898698 -116.542610 279 9980ft 154kts
11-Aug-20 21:13 33.911199 -116.591887 279 9980ft 154kts
11-Aug-20 21:14 33.923680 -116.641173 279 9980ft 153kts
11-Aug-20 21:15 33.936256 -116.690991 279 9883ft 161kts
11-Aug-20 21:16 33.948446 -116.742036 263 9903ft 152kts
11-Aug-20 21:18 33.946851 -116.793160 261 9938ft 152kts
11-Aug-20 21:19 33.945116 -116.844324 261 9970ft 153kts
11-Aug-20 21:20 33.943331 -116.895880 261 9996ft 154kts
11-Aug-20 21:21 33.941513 -116.947855 262 9992ft 156kts
11-Aug-20 21:22 33.939669 -117.000244 263 9988ft 157kts
11-Aug-20 21:23 33.937779 -117.053339 264 9985ft 159kts
11-Aug-20 21:24 33.935820 -117.106905 265 9981ft 161kts
11-Aug-20 21:25 33.933787 -117.162412 265 9975ft 163kts
11-Aug-20 21:26 33.931456 -117.217107 265 9967ft 163kts
11-Aug-20 21:27 33.929086 -117.271892 265 9959ft 163kts
11-Aug-20 21:28 33.926690 -117.326664 265 9951ft 163kts
11-Aug-20 21:29 33.924357 -117.381861 265 9805ft 171kts
11-Aug-20 21:30 33.921889 -117.442666 265 8936ft 186kts
11-Aug-20 21:31 33.919312 -117.505289 265 8039ft 187kts
11-Aug-20 21:32 33.919729 -117.567498 269 7135ft 185kts
11-Aug-20 21:32 33.920213 -117.618940 269 6379ft 183kts
11-Aug-20 21:34 33.920678 -117.690327 268 5331ft 182kts
11-Aug-20 21:35 33.921027 -117.749395 268 4939ft 164kts
11-Aug-20 21:35 33.921276 -117.794230 268 4944ft 158kts
11-Aug-20 21:37 33.921568 -117.856371 268 4949ft 162kts
11-Aug-20 21:37 33.921771 -117.902683 268 4946ft 167kts
11-Aug-20 21:38 33.921995 -117.960881 269 4476ft 184kts
11-Aug-20 21:40 33.922153 -118.004482 269 3948ft 185kts
11-Aug-20 21:40 33.922088 -118.050605 269 3849ft 175kts
11-Aug-20 21:41 33.927370 -118.110477 276 3562ft 177kts
11-Aug-20 21:42 33.930993 -118.171004 267 2827ft 180kts
11-Aug-20 21:43 33.928149 -118.228412 263 1639ft 168kts
11-Aug-20 21:44 33.925893 -118.276361 264 529ft 122kts
11-Aug-20 21:45 33.924161 -118.306838 267 332ft 82kts
11-Aug-20 21:46 33.922871 -118.333778 269 63ft 60kts
11-Aug-20 21:47 33.922309 -118.337352 76 63ft 3kts
11-Aug-20 21:48 33.922193 -118.335422 137 63ft 8kts
11-Aug-20 21:49 33.921907 -118.334663 55 63ft 0kts
11-Aug-20 21:50 33.921907 -118.334663 55 63ft 0kts
11-Aug-20 21:51 33.921907 -118.334663 55 63ft 0kts
11-Aug-20 21:52 33.921907 -118.334663 55 63ft 0kts
11-Aug-20 21:53 33.921907 -118.334663 55 63ft 0kts
11-Aug-20 21:54 33.921907 -118.334663 55 63ft 0kts
11-Aug-20 21:55 33.921907 -118.334663 55 63ft 0kts

Navigation Log

Ident Type
Flight plan parsing failed, navigation log unavailable